Главная страница
METAR-TAF:

METAR-TAF

Аэропорты :

Женева, Швейцария

широта: 46-15N, долгота: 006-08E, высота над уровнем моря: 420 м

Текущие метеонаблюдения

Эта сводка был подготовлена 16 минут назад, в 17:20 UTC
Ветер 4 Узел от северо-восточный
Температура 26°C
Влажность 24%
Давление 1017 hPa
Видимость 10 км и более
небольшая облачность на высоте 6500 фута

METAR: LSGG 211720Z 04004KT 9999 FEW065 26/04 Q1017 NOSIG

Время: 19:36 (17:36 UTC)

Прогноз

Эта сводка был подготовлена 11 минут назад, в 17:25 UTC
Прогноз действительный с 21-го 18 UTC до 22-го 24 UTC
Ветер 3 Узел переменных направлений
Видимость 10 км и более
небольшая облачность на высоте 6000 фута
изменения
С 22-го 10 UTC до 22-го 12 UTC
Ветер 10 Узел от юго-западный
изменения
С 22-го 18 UTC до 22-го 21 UTC
Ветер 3 Узел переменных направлений

TAF: LSGG 211725Z 2118/2224 VRB03KT 9999 FEW060 TX28/2215Z TN10/2206Z BECMG 2210/2212 22010KT BECMG 2218/2221 VRB03KT

Метеонаблюдения и прогнозы для более 4000 аэропортов (сводки METAR и TAF).

Имеющиеся станции представлены на карте желтыми и красными точками.

Чтобы увидеть название станции, наведите на нее мышь.

Затем щелкните, чтобы увидеть метеонаблюдения и метеопрогнозы.

Управление картой: чтобы увеличить масштаб, щелкните зеленые кнопки с черным крестиком; чтобы уменьшить масштаб, щелкните зеленую кнопку с тире; для просмотра соседних карт щелкайте зеленые стрелки.


METAR-TAF: